MAS2645 WBKK-WMKK
Flight info
| Callsign | MAS2645 |
|---|---|
| Flight time | N/A |
| Altitude | 36000 |
| Route | EGENU2F VIDIP M758 IDSEL Y335 PADLI Y343 SAROX SAROX1J |
| Aircraft | B738/M-SDE2E3FGHIRWXY/LB1 |
Departure
| Time | 2026-05-08 08:17 |
|---|---|
| Airport | Kota Kinabalu International Airport (WBKK) |
Arrival
| Time | N/A |
|---|---|
| Airport | Kuala Lumpur International Airport (WMKK) |
| Time | Latitude | Longitude | Altitude | Speed | Heading |
|---|---|---|---|---|---|
| 2026-05-08 07:43 | 5.92397 | 116.04962 | 28 ft | 0 kts | 63° |
| 2026-05-08 07:54 | 5.92394 | 116.04956 | 28 ft | 7 kts | 63° |
| 2026-05-08 07:54 | 5.92397 | 116.04962 | 28 ft | 0 kts | 63° |
| 2026-05-08 08:06 | 5.92395 | 116.04957 | 28 ft | 3 kts | 63° |
| 2026-05-08 08:06 | 5.92383 | 116.04933 | 28 ft | 4 kts | 63° |
| 2026-05-08 08:06 | 5.92371 | 116.04908 | 28 ft | 4 kts | 63° |
| 2026-05-08 08:07 | 5.92359 | 116.04885 | 28 ft | 3 kts | 63° |
| 2026-05-08 08:07 | 5.92347 | 116.04867 | 28 ft | 4 kts | 28° |
| 2026-05-08 08:07 | 5.92323 | 116.04862 | 28 ft | 4 kts | 348° |
| 2026-05-08 08:07 | 5.92298 | 116.04870 | 28 ft | 3 kts | 338° |
| 2026-05-08 08:08 | 5.92295 | 116.04871 | 28 ft | 0 kts | 338° |
| 2026-05-08 08:13 | 5.92304 | 116.04867 | 28 ft | 2 kts | 339° |
| 2026-05-08 08:14 | 5.92317 | 116.04862 | 28 ft | 3 kts | 340° |
| 2026-05-08 08:14 | 5.92339 | 116.04855 | 28 ft | 3 kts | 340° |
| 2026-05-08 08:14 | 5.92361 | 116.04847 | 28 ft | 3 kts | 340° |
| 2026-05-08 08:14 | 5.92382 | 116.04837 | 28 ft | 4 kts | 326° |
| 2026-05-08 08:15 | 5.92404 | 116.04805 | 28 ft | 7 kts | 296° |
| 2026-05-08 08:15 | 5.92425 | 116.04757 | 28 ft | 8 kts | 294° |
| 2026-05-08 08:15 | 5.92448 | 116.04704 | 28 ft | 8 kts | 292° |
| 2026-05-08 08:15 | 5.92474 | 116.04650 | 28 ft | 9 kts | 304° |
| 2026-05-08 08:16 | 5.92527 | 116.04616 | 28 ft | 10 kts | 353° |
| 2026-05-08 08:16 | 5.92592 | 116.04639 | 28 ft | 10 kts | 24° |
| 2026-05-08 08:16 | 5.92668 | 116.04672 | 28 ft | 17 kts | 22° |
| 2026-05-08 08:16 | 5.92903 | 116.04770 | 28 ft | 71 kts | 23° |
| 2026-05-08 08:17 | 5.93586 | 116.05061 | 28 ft | 140 kts | 23° |
| 2026-05-08 08:17 | 5.94665 | 116.05512 | 101 ft | 190 kts | 24° |
| 2026-05-08 08:17 | 5.95911 | 116.05951 | 1033 ft | 181 kts | 14° |
| 2026-05-08 08:17 | 5.97127 | 116.06139 | 1912 ft | 183 kts | 358° |
| 2026-05-08 08:18 | 5.98431 | 116.05744 | 2207 ft | 211 kts | 333° |
| 2026-05-08 08:18 | 5.99623 | 116.04791 | 2595 ft | 223 kts | 313° |
| 2026-05-08 08:18 | 6.00379 | 116.03368 | 2849 ft | 242 kts | 293° |
| 2026-05-08 08:18 | 6.01074 | 116.01816 | 3301 ft | 245 kts | 298° |
| 2026-05-08 08:19 | 6.01883 | 116.00288 | 3782 ft | 249 kts | 302° |
| 2026-05-08 08:19 | 6.02751 | 115.98776 | 4264 ft | 252 kts | 303° |
| 2026-05-08 08:19 | 6.03651 | 115.97251 | 4768 ft | 256 kts | 302° |
| 2026-05-08 08:19 | 6.04460 | 115.95645 | 5325 ft | 261 kts | 286° |
| 2026-05-08 08:20 | 6.04589 | 115.93823 | 5866 ft | 268 kts | 263° |
| 2026-05-08 08:20 | 6.04250 | 115.91937 | 6281 ft | 283 kts | 257° |
| 2026-05-08 08:20 | 6.03791 | 115.89984 | 6834 ft | 292 kts | 257° |
| 2026-05-08 08:20 | 6.03310 | 115.87979 | 7462 ft | 297 kts | 256° |
| 2026-05-08 08:21 | 6.02838 | 115.85964 | 8233 ft | 298 kts | 257° |
| 2026-05-08 08:21 | 6.02379 | 115.83919 | 8877 ft | 302 kts | 257° |
| 2026-05-08 08:21 | 6.01926 | 115.81845 | 9608 ft | 305 kts | 258° |
| 2026-05-08 08:21 | 6.01472 | 115.79747 | 10207 ft | 310 kts | 257° |
| 2026-05-08 08:22 | 6.00997 | 115.77561 | 10412 ft | 331 kts | 258° |
| 2026-05-08 08:22 | 6.00375 | 115.75259 | 10564 ft | 352 kts | 245° |
| 2026-05-08 08:22 | 5.99064 | 115.73124 | 10802 ft | 367 kts | 234° |
| 2026-05-08 08:22 | 5.97512 | 115.71077 | 11440 ft | 367 kts | 225° |
| 2026-05-08 08:23 | 5.95470 | 115.69551 | 11940 ft | 371 kts | 206° |
| 2026-05-08 08:23 | 5.93190 | 115.68430 | 12964 ft | 355 kts | 202° |
| 2026-05-08 08:23 | 5.90991 | 115.67540 | 14319 ft | 328 kts | 199° |
| 2026-05-08 08:23 | 5.88889 | 115.66749 | 15150 ft | 322 kts | 198° |
| 2026-05-08 08:24 | 5.88078 | 115.66443 | 15061 ft | 330 kts | 198° |